sensor_id;sensor_type;location;lat;lon;timestamp;P1;durP1;ratioP1;P2;durP2;ratioP2
75038;SDS011;63609;49.992;14.512;2023-04-01T00:03:30;1.45;;;0.82;;
75038;SDS011;63609;49.992;14.512;2023-04-01T00:06:03;2.50;;;0.70;;
75038;SDS011;63609;49.992;14.512;2023-04-01T00:08:33;1.63;;;0.75;;
75038;SDS011;63609;49.992;14.512;2023-04-01T00:11:00;2.25;;;0.77;;
75038;SDS011;63609;49.992;14.512;2023-04-01T00:13:27;1.98;;;0.80;;
75038;SDS011;63609;49.992;14.512;2023-04-01T00:15:55;3.03;;;0.75;;
75038;SDS011;63609;49.992;14.512;2023-04-01T00:18:29;1.30;;;0.75;;
75038;SDS011;63609;49.992;14.512;2023-04-01T00:20:59;2.70;;;1.08;;
75038;SDS011;63609;49.992;14.512;2023-04-01T00:23:26;3.42;;;0.77;;
75038;SDS011;63609;49.992;14.512;2023-04-01T00:25:54;3.45;;;0.75;;
75038;SDS011;63609;49.992;14.512;2023-04-01T00:28:21;3.13;;;0.90;;
75038;SDS011;63609;49.992;14.512;2023-04-01T00:30:48;1.08;;;0.80;;
75038;SDS011;63609;49.992;14.512;2023-04-01T00:33:16;1.92;;;0.70;;
75038;SDS011;63609;49.992;14.512;2023-04-01T00:35:44;1.58;;;0.60;;
75038;SDS011;63609;49.992;14.512;2023-04-01T00:38:12;1.17;;;0.70;;
75038;SDS011;63609;49.992;14.512;2023-04-01T00:40:44;0.73;;;0.52;;
75038;SDS011;63609;49.992;14.512;2023-04-01T00:43:15;2.85;;;1.00;;
75038;SDS011;63609;49.992;14.512;2023-04-01T00:45:47;3.00;;;1.00;;
75038;SDS011;63609;49.992;14.512;2023-04-01T00:53:21;0.52;;;0.40;;
75038;SDS011;63609;49.992;14.512;2023-04-01T00:55:50;1.98;;;0.60;;
75038;SDS011;63609;49.992;14.512;2023-04-01T00:58:22;3.28;;;1.40;;
75038;SDS011;63609;49.992;14.512;2023-04-01T01:00:52;1.08;;;0.57;;
75038;SDS011;63609;49.992;14.512;2023-04-01T01:03:22;0.85;;;0.43;;
75038;SDS011;63609;49.992;14.512;2023-04-01T01:05:53;1.80;;;0.70;;
75038;SDS011;63609;49.992;14.512;2023-04-01T01:11:22;3.45;;;2.22;;
75038;SDS011;63609;49.992;14.512;2023-04-01T01:16:58;1.73;;;0.88;;
75038;SDS011;63609;49.992;14.512;2023-04-01T01:28:32;1.75;;;0.60;;
75038;SDS011;63609;49.992;14.512;2023-04-01T01:31:12;1.25;;;0.60;;
75038;SDS011;63609;49.992;14.512;2023-04-01T01:36:31;1.75;;;1.08;;
75038;SDS011;63609;49.992;14.512;2023-04-01T01:39:05;1.60;;;0.85;;
75038;SDS011;63609;49.992;14.512;2023-04-01T01:41:36;1.52;;;0.65;;
75038;SDS011;63609;49.992;14.512;2023-04-01T01:44:06;1.38;;;0.60;;
75038;SDS011;63609;49.992;14.512;2023-04-01T01:46:36;3.38;;;0.65;;
75038;SDS011;63609;49.992;14.512;2023-04-01T01:49:06;1.60;;;0.73;;
75038;SDS011;63609;49.992;14.512;2023-04-01T01:51:36;2.30;;;0.68;;
75038;SDS011;63609;49.992;14.512;2023-04-01T01:54:05;1.17;;;0.70;;
75038;SDS011;63609;49.992;14.512;2023-04-01T01:56:32;1.23;;;0.65;;
75038;SDS011;63609;49.992;14.512;2023-04-01T01:59:03;2.03;;;0.60;;
75038;SDS011;63609;49.992;14.512;2023-04-01T02:01:37;1.70;;;0.50;;
75038;SDS011;63609;49.992;14.512;2023-04-01T02:04:12;4.15;;;0.90;;
75038;SDS011;63609;49.992;14.512;2023-04-01T02:06:43;2.63;;;0.70;;
75038;SDS011;63609;49.992;14.512;2023-04-01T02:09:15;1.08;;;0.60;;
75038;SDS011;63609;49.992;14.512;2023-04-01T02:11:51;1.20;;;1.05;;
75038;SDS011;63609;49.992;14.512;2023-04-01T02:14:23;2.15;;;0.55;;
75038;SDS011;63609;49.992;14.512;2023-04-01T02:19:39;2.65;;;0.60;;
75038;SDS011;63609;49.992;14.512;2023-04-01T02:22:14;1.08;;;0.55;;
75038;SDS011;63609;49.992;14.512;2023-04-01T02:24:47;0.90;;;0.60;;
75038;SDS011;63609;49.992;14.512;2023-04-01T02:27:16;1.25;;;0.52;;
75038;SDS011;63609;49.992;14.512;2023-04-01T02:29:44;3.45;;;0.60;;
75038;SDS011;63609;49.992;14.512;2023-04-01T02:32:18;1.17;;;0.55;;
75038;SDS011;63609;49.992;14.512;2023-04-01T02:34:47;1.52;;;0.50;;
75038;SDS011;63609;49.992;14.512;2023-04-01T02:37:15;1.92;;;0.70;;
75038;SDS011;63609;49.992;14.512;2023-04-01T02:39:44;3.13;;;0.77;;
75038;SDS011;63609;49.992;14.512;2023-04-01T02:42:13;2.13;;;0.80;;
75038;SDS011;63609;49.992;14.512;2023-04-01T02:44:41;1.73;;;0.70;;
75038;SDS011;63609;49.992;14.512;2023-04-01T02:47:09;3.30;;;0.70;;
75038;SDS011;63609;49.992;14.512;2023-04-01T02:49:36;1.08;;;0.60;;
75038;SDS011;63609;49.992;14.512;2023-04-01T02:52:03;1.83;;;0.75;;
75038;SDS011;63609;49.992;14.512;2023-04-01T02:54:31;3.10;;;0.82;;
75038;SDS011;63609;49.992;14.512;2023-04-01T02:56:59;1.45;;;0.60;;
75038;SDS011;63609;49.992;14.512;2023-04-01T02:59:27;1.95;;;0.77;;
75038;SDS011;63609;49.992;14.512;2023-04-01T03:01:55;1.65;;;0.50;;
75038;SDS011;63609;49.992;14.512;2023-04-01T03:04:22;2.25;;;0.75;;
75038;SDS011;63609;49.992;14.512;2023-04-01T03:06:50;3.78;;;0.55;;
75038;SDS011;63609;49.992;14.512;2023-04-01T03:09:17;1.98;;;0.70;;
75038;SDS011;63609;49.992;14.512;2023-04-01T03:11:48;1.80;;;0.60;;
75038;SDS011;63609;49.992;14.512;2023-04-01T03:14:15;1.30;;;0.70;;
75038;SDS011;63609;49.992;14.512;2023-04-01T03:16:43;0.80;;;0.60;;
75038;SDS011;63609;49.992;14.512;2023-04-01T03:19:11;1.83;;;0.70;;
75038;SDS011;63609;49.992;14.512;2023-04-01T03:21:38;2.03;;;0.80;;
75038;SDS011;63609;49.992;14.512;2023-04-01T03:24:12;1.92;;;1.10;;
75038;SDS011;63609;49.992;14.512;2023-04-01T03:26:39;1.40;;;0.73;;
75038;SDS011;63609;49.992;14.512;2023-04-01T03:29:06;1.30;;;0.73;;
75038;SDS011;63609;49.992;14.512;2023-04-01T03:31:37;1.20;;;0.60;;
75038;SDS011;63609;49.992;14.512;2023-04-01T03:34:04;2.13;;;0.85;;
75038;SDS011;63609;49.992;14.512;2023-04-01T03:36:31;2.92;;;0.80;;
75038;SDS011;63609;49.992;14.512;2023-04-01T03:38:58;4.60;;;1.02;;
75038;SDS011;63609;49.992;14.512;2023-04-01T03:41:36;1.67;;;0.65;;
75038;SDS011;63609;49.992;14.512;2023-04-01T03:44:05;2.40;;;0.60;;
75038;SDS011;63609;49.992;14.512;2023-04-01T03:46:33;2.20;;;1.33;;
75038;SDS011;63609;49.992;14.512;2023-04-01T03:49:00;2.95;;;0.80;;
75038;SDS011;63609;49.992;14.512;2023-04-01T03:51:30;2.08;;;0.80;;
75038;SDS011;63609;49.992;14.512;2023-04-01T03:53:57;1.33;;;0.80;;
75038;SDS011;63609;49.992;14.512;2023-04-01T03:56:24;1.40;;;0.70;;
75038;SDS011;63609;49.992;14.512;2023-04-01T03:58:52;1.05;;;0.52;;
75038;SDS011;63609;49.992;14.512;2023-04-01T04:01:20;2.92;;;1.15;;
75038;SDS011;63609;49.992;14.512;2023-04-01T04:06:22;2.17;;;0.60;;
75038;SDS011;63609;49.992;14.512;2023-04-01T04:08:51;1.67;;;0.70;;
75038;SDS011;63609;49.992;14.512;2023-04-01T04:11:19;1.58;;;0.90;;
75038;SDS011;63609;49.992;14.512;2023-04-01T04:13:50;3.35;;;1.02;;
75038;SDS011;63609;49.992;14.512;2023-04-01T04:16:19;2.35;;;0.93;;
75038;SDS011;63609;49.992;14.512;2023-04-01T04:18:53;2.63;;;0.80;;
75038;SDS011;63609;49.992;14.512;2023-04-01T04:21:20;1.83;;;0.73;;
75038;SDS011;63609;49.992;14.512;2023-04-01T04:23:47;2.88;;;0.80;;
75038;SDS011;63609;49.992;14.512;2023-04-01T04:26:17;4.40;;;1.25;;
75038;SDS011;63609;49.992;14.512;2023-04-01T04:28:56;2.67;;;0.82;;
75038;SDS011;63609;49.992;14.512;2023-04-01T04:31:25;1.38;;;0.77;;
75038;SDS011;63609;49.992;14.512;2023-04-01T04:33:54;2.67;;;1.00;;
75038;SDS011;63609;49.992;14.512;2023-04-01T04:36:22;2.45;;;0.80;;
75038;SDS011;63609;49.992;14.512;2023-04-01T04:38:50;2.33;;;0.77;;
75038;SDS011;63609;49.992;14.512;2023-04-01T04:41:19;6.63;;;1.27;;
75038;SDS011;63609;49.992;14.512;2023-04-01T04:43:51;2.03;;;0.70;;
75038;SDS011;63609;49.992;14.512;2023-04-01T04:46:21;1.33;;;0.70;;
75038;SDS011;63609;49.992;14.512;2023-04-01T04:48:54;1.95;;;0.73;;
75038;SDS011;63609;49.992;14.512;2023-04-01T04:51:22;3.65;;;1.13;;
75038;SDS011;63609;49.992;14.512;2023-04-01T04:53:50;1.63;;;0.80;;
75038;SDS011;63609;49.992;14.512;2023-04-01T04:56:27;1.77;;;0.90;;
75038;SDS011;63609;49.992;14.512;2023-04-01T04:59:07;2.13;;;0.85;;
75038;SDS011;63609;49.992;14.512;2023-04-01T05:01:54;2.83;;;1.00;;
75038;SDS011;63609;49.992;14.512;2023-04-01T05:04:24;2.92;;;1.27;;
75038;SDS011;63609;49.992;14.512;2023-04-01T05:06:52;2.58;;;0.80;;
75038;SDS011;63609;49.992;14.512;2023-04-01T05:09:20;2.60;;;1.38;;
75038;SDS011;63609;49.992;14.512;2023-04-01T05:11:50;2.63;;;0.80;;
75038;SDS011;63609;49.992;14.512;2023-04-01T05:14:19;3.40;;;1.15;;
75038;SDS011;63609;49.992;14.512;2023-04-01T05:16:55;2.35;;;1.27;;
75038;SDS011;63609;49.992;14.512;2023-04-01T05:19:25;3.92;;;1.20;;
75038;SDS011;63609;49.992;14.512;2023-04-01T05:21:56;15.15;;;1.35;;
75038;SDS011;63609;49.992;14.512;2023-04-01T05:24:26;3.90;;;1.15;;
75038;SDS011;63609;49.992;14.512;2023-04-01T05:26:54;1.75;;;0.90;;
75038;SDS011;63609;49.992;14.512;2023-04-01T05:29:23;2.13;;;1.00;;
75038;SDS011;63609;49.992;14.512;2023-04-01T05:31:58;2.25;;;0.82;;
75038;SDS011;63609;49.992;14.512;2023-04-01T05:34:25;1.77;;;0.55;;
75038;SDS011;63609;49.992;14.512;2023-04-01T05:36:52;1.42;;;0.70;;
75038;SDS011;63609;49.992;14.512;2023-04-01T05:39:20;2.80;;;1.23;;
75038;SDS011;63609;49.992;14.512;2023-04-01T05:41:53;1.38;;;0.90;;
75038;SDS011;63609;49.992;14.512;2023-04-01T05:44:21;4.00;;;0.70;;
75038;SDS011;63609;49.992;14.512;2023-04-01T05:47:08;2.08;;;0.70;;
75038;SDS011;63609;49.992;14.512;2023-04-01T05:49:38;1.67;;;0.70;;
75038;SDS011;63609;49.992;14.512;2023-04-01T05:52:11;1.30;;;0.70;;
75038;SDS011;63609;49.992;14.512;2023-04-01T05:54:39;1.73;;;0.95;;
75038;SDS011;63609;49.992;14.512;2023-04-01T05:57:06;2.00;;;0.70;;
75038;SDS011;63609;49.992;14.512;2023-04-01T05:59:34;3.22;;;0.82;;
75038;SDS011;63609;49.992;14.512;2023-04-01T06:02:03;1.35;;;0.77;;
75038;SDS011;63609;49.992;14.512;2023-04-01T06:04:34;2.33;;;1.02;;
75038;SDS011;63609;49.992;14.512;2023-04-01T06:07:10;1.35;;;0.60;;
75038;SDS011;63609;49.992;14.512;2023-04-01T06:09:42;2.58;;;1.00;;
75038;SDS011;63609;49.992;14.512;2023-04-01T06:31:44;4.95;;;1.15;;
75038;SDS011;63609;49.992;14.512;2023-04-01T06:40:03;1.13;;;0.70;;
75038;SDS011;63609;49.992;14.512;2023-04-01T06:58:30;2.90;;;0.80;;
75038;SDS011;63609;49.992;14.512;2023-04-01T07:01:03;2.13;;;0.43;;
75038;SDS011;63609;49.992;14.512;2023-04-01T07:03:41;3.42;;;0.77;;
75038;SDS011;63609;49.992;14.512;2023-04-01T07:06:16;3.53;;;0.82;;
75038;SDS011;63609;49.992;14.512;2023-04-01T07:09:08;1.40;;;0.70;;
75038;SDS011;63609;49.992;14.512;2023-04-01T07:12:15;5.10;;;0.90;;
75038;SDS011;63609;49.992;14.512;2023-04-01T07:15:30;3.17;;;0.70;;
75038;SDS011;63609;49.992;14.512;2023-04-01T07:18:18;1.38;;;0.60;;
75038;SDS011;63609;49.992;14.512;2023-04-01T07:20:56;2.80;;;0.90;;
75038;SDS011;63609;49.992;14.512;2023-04-01T07:23:31;1.08;;;0.50;;
75038;SDS011;63609;49.992;14.512;2023-04-01T07:26:21;1.92;;;1.02;;
75038;SDS011;63609;49.992;14.512;2023-04-01T07:28:59;2.22;;;0.88;;
75038;SDS011;63609;49.992;14.512;2023-04-01T07:31:41;1.30;;;0.93;;
75038;SDS011;63609;49.992;14.512;2023-04-01T07:34:23;0.82;;;0.50;;
75038;SDS011;63609;49.992;14.512;2023-04-01T21:32:34;2.70;;;1.48;;
75038;SDS011;63609;49.992;14.512;2023-04-01T21:37:50;2.90;;;1.80;;
75038;SDS011;63609;49.992;14.512;2023-04-01T21:48:58;3.75;;;1.42;;
75038;SDS011;63609;49.992;14.512;2023-04-01T21:51:43;2.63;;;1.33;;
75038;SDS011;63609;49.992;14.512;2023-04-01T22:02:39;3.47;;;1.75;;
75038;SDS011;63609;49.992;14.512;2023-04-01T22:07:55;1.77;;;1.13;;
75038;SDS011;63609;49.992;14.512;2023-04-01T22:10:38;2.42;;;1.27;;
75038;SDS011;63609;49.992;14.512;2023-04-01T22:13:23;3.20;;;1.30;;
75038;SDS011;63609;49.992;14.512;2023-04-01T22:21:36;3.60;;;1.83;;
75038;SDS011;63609;49.992;14.512;2023-04-01T22:38:33;2.90;;;1.38;;
75038;SDS011;63609;49.992;14.512;2023-04-01T22:43:44;2.25;;;1.00;;
75038;SDS011;63609;49.992;14.512;2023-04-01T22:53:05;2.85;;;1.38;;
75038;SDS011;63609;49.992;14.512;2023-04-01T22:55:13;2.38;;;1.55;;
75038;SDS011;63609;49.992;14.512;2023-04-01T22:57:52;2.78;;;1.70;;
75038;SDS011;63609;49.992;14.512;2023-04-01T23:06:02;2.75;;;1.30;;
75038;SDS011;63609;49.992;14.512;2023-04-01T23:13:53;3.58;;;2.00;;
75038;SDS011;63609;49.992;14.512;2023-04-01T23:16:28;3.65;;;1.70;;
75038;SDS011;63609;49.992;14.512;2023-04-01T23:19:21;2.50;;;1.50;;
75038;SDS011;63609;49.992;14.512;2023-04-01T23:22:46;2.55;;;1.40;;
75038;SDS011;63609;49.992;14.512;2023-04-01T23:28:18;2.38;;;1.38;;
75038;SDS011;63609;49.992;14.512;2023-04-01T23:30:46;2.97;;;1.73;;
75038;SDS011;63609;49.992;14.512;2023-04-01T23:35:56;2.75;;;1.45;;
75038;SDS011;63609;49.992;14.512;2023-04-01T23:38:35;2.97;;;1.77;;
75038;SDS011;63609;49.992;14.512;2023-04-01T23:41:05;3.85;;;1.88;;
75038;SDS011;63609;49.992;14.512;2023-04-01T23:43:36;2.38;;;1.50;;
75038;SDS011;63609;49.992;14.512;2023-04-01T23:46:08;3.53;;;2.10;;
75038;SDS011;63609;49.992;14.512;2023-04-01T23:48:36;6.95;;;1.92;;
75038;SDS011;63609;49.992;14.512;2023-04-01T23:51:13;3.22;;;1.80;;
75038;SDS011;63609;49.992;14.512;2023-04-01T23:53:46;2.53;;;1.50;;
75038;SDS011;63609;49.992;14.512;2023-04-01T23:56:17;3.50;;;1.67;;
75038;SDS011;63609;49.992;14.512;2023-04-01T23:58:48;4.97;;;2.53;;
